Wednesday, June 20, 2018, 11:05 AM EDT
Back to Local

KVSF, Hartness State Airport

Location: Perkinsville, VT, United States Lat: 43.35
Local Time: 11:05 AM EDT (15:05 GMT) Lon: -72.517
Time Zone: US/Eastern Elev: 577 ft

Show me the last for .
Show Decoded

2018-06-20 09:54 METAR KVSF 201354Z AUTO 00000KT 10SM CLR 20/12 A2991 RMK AO2 SLP126 T02000117 =
2018-06-20 08:54 METAR KVSF 201254Z AUTO 00000KT 10SM CLR 17/11 A2992 RMK AO2 SLP133 T01670106 =
2018-06-20 07:54 METAR KVSF 201154Z AUTO 00000KT 10SM CLR 13/10 A2995 RMK AO2 SLP141 T01330100
                 10133 20072 50006 =
2018-06-20 06:54 METAR KVSF 201054Z AUTO 00000KT 10SM CLR 10/09 A2995 RMK AO2 SLP143 T01000094 =
2018-06-20 06:16 METAR KVSF 201016Z AUTO 00000KT 9SM SCT001 08/08 A2994 RMK AO2 T00830083 =
2018-06-20 06:09 METAR KVSF 201009Z AUTO 00000KT 1 1/2SM BR SCT001 08/08 A2993 RMK AO2 T00830078
                 =
2018-06-20 06:05 METAR KVSF 201005Z AUTO 00000KT 1/2SM FG VV001 08/07 A2993 RMK AO2 T00780072 =
2018-06-20 05:58 METAR KVSF 200958Z AUTO 00000KT 1 1/4SM BR FEW001 08/08 A2993 RMK AO2 VIS 1/4V5
                 T00780078 =
2018-06-20 05:54 METAR KVSF 200954Z AUTO 00000KT 5SM BR FEW001 08/07 A2993 RMK AO2 SLP135
                 T00780072 =
2018-06-20 05:22 METAR KVSF 200922Z AUTO 00000KT 10SM FEW001 08/07 A2993 RMK AO2 T00780072 =
2018-06-20 04:54 METAR KVSF 200854Z AUTO 00000KT 10SM CLR 08/07 A2993 RMK AO2 SLP135 T00830072
                 53001 =
2018-06-20 03:54 METAR KVSF 200754Z AUTO 00000KT 10SM CLR 08/08 A2992 RMK AO2 SLP133 T00830078 =
2018-06-20 02:54 METAR KVSF 200654Z AUTO 00000KT 10SM CLR 09/09 A2993 RMK AO2 SLP134 T00940089 =
2018-06-20 01:54 METAR KVSF 200554Z AUTO 00000KT 10SM CLR 10/09 A2993 RMK AO2 SLP134 T01000089
                 10217 20094 58001 =
2018-06-20 00:54 METAR KVSF 200454Z AUTO 00000KT 10SM CLR 11/09 A2993 RMK AO2 SLP135 T01060094
                 402500106 =
2018-06-19 23:54 METAR KVSF 200354Z AUTO 00000KT 10SM CLR 12/09 A2993 RMK AO2 SLP135 T01170094 =
2018-06-19 22:54 METAR KVSF 200254Z AUTO 00000KT 10SM CLR 13/09 A2993 RMK AO2 SLP135 T01330094
                 51018 =
2018-06-19 21:54 METAR KVSF 200154Z AUTO 00000KT 10SM CLR 16/09 A2992 RMK AO2 SLP131 T01560094 =
2018-06-19 20:54 METAR KVSF 200054Z AUTO 00000KT 10SM CLR 18/09 A2989 RMK AO2 SLP121 T01780089 =
2018-06-19 19:54 METAR KVSF 192354Z AUTO 36003KT 10SM CLR 22/07 A2988 RMK AO2 SLP115 T02170067
                 10250 20217 53013 =
2018-06-19 18:54 METAR KVSF 192254Z AUTO VRB04KT 10SM CLR 23/06 A2986 RMK AO2 SLP111 T02330061 =
2018-06-19 17:54 METAR KVSF 192154Z AUTO 34008G15KT 300V360 10SM CLR 24/05 A2985 RMK AO2 SLP105
                 T02390050 =
2018-06-19 16:54 METAR KVSF 192054Z AUTO 35009KT 320V030 10SM CLR 24/06 A2984 RMK AO2 SLP101
                 T02440056 50000 =
2018-06-19 15:54 METAR KVSF 191954Z AUTO 36008G15KT 10SM CLR 25/08 A2984 RMK AO2 SLP102 T02500078
                 =
2018-06-19 14:54 METAR KVSF 191854Z AUTO 34008G14KT 290V020 10SM CLR 24/08 A2984 RMK AO2 SLP101
                 T02440083 =
2018-06-19 13:54 METAR KVSF 191754Z AUTO 33008G16KT 10SM CLR 24/08 A2984 RMK AO2 SLP101 T02440078
                 10244 20206 55002 =
2018-06-19 12:54 METAR KVSF 191654Z AUTO 33010G18KT 10SM CLR 23/08 A2984 RMK AO2 SLP101 T02330078
                 =
2018-06-19 11:54 METAR KVSF 191554Z AUTO VRB06G14KT 10SM CLR 23/09 A2984 RMK AO2 SLP103 T02280094
                 =

Support USWX by starting your Amazon purchase here.